UAV - Meteorology

To τεστ αποτελείται από 10 ερωτήσεις. Εχετε 10' για να το ολοκληρώσετε.
Επιτυχές αποτέλεσμα θεωρείται η βαθμολογία άνω του 80%

Δεν απαιτείται σύνδεση ή να βάλετε τα προσωπικά σας στοιχεία.
Εαν θέλετε, εφόσον έχετε επιτυχές αποτέλεσμα να λάβετε
ένα πιστοποιητικό (Certificate of Accomplishment),
μην ξεχάσετε το όνομά σας με λατινικούς χαρακτήρες στο τέλος του τεστ,
όπως επιθυμείτε αυτό να αναγράφεται στο πιστοποιητικό.

Air Traffic Rules | Meteorology | Civil Aviation Legislation | Navigation | Aerodynamics | Radio Communications | Technical Knowledge | Human Factors
EGPH 050500Z 0506/0606 23017G30KT 9999 BKN020 TEMPO 0506/0512 5000 RA BKN012
BECMG 0515/0518 27020G30KT
TEMPO 0600/0606 8000 –SHRA
Nα χαρακτηριστούν ως ‘ΣΩΣΤΗ’ ή ‘ΛΑΘΟΣ’ οι παρακάτω προτάσεις.
Πρόταση Ι: «Στο παραπάνω σήμα διατυπώνεται ότι από 06:00 έως 12:00, παροδικά, η νεφοκάλυψη θα είναι 3 ή 4/8 με βάση στα 120 m».
Πρόταση ΙΙ: «Στο παραπάνω σήμα διατυπώνεται ότι, σήμερα, από 15:00 έως 18:00 ο άνεμος καθίσταται ριπαίος με ριπές 30 kt».
Όταν η βαρομετρική πίεση πέφτει
Τι στοιχεία εξάγουμε από το ακόλουθο METAR: LGAV 251020Z 03026KT CAVOK 30/14 Q1012 NOSIG
Νέφη ονομάζονται το ορατό σύνολο των μικροσκοπικών σταγονιδίων νερού ή σωματιδίων πάγου, που αιωρούνται στην ατμόσφαιρα. Νέφη, ομίχλη ή δρόσος σχηματίζεται πάντα όταν
Αναστροφή της θερμοκρασίας κοντά στο έδαφος ευνοεί:
Τι στοιχεία εξάγουμε από το ακόλουθο METAR: LGSK 131050Z 04007KT 9000 SCT020 BKN030 OVC080 12/08 Q1021
Ένα METAR, είναι ένα μετεωρολογικό τηλεγράφημα που κοινοποιούν οι μετεωρολογικοί σταθμοί προς αεροναυτιλόμενους. Οι χειριστές για τα METAR γνωρίζουν πως:
Κατά την πορεία καθόδου ενός ΣμηΕΑ για προσγείωση, η ανομοιόμορφη θέρμανση διαφορετικών επιφανειών μπορεί να προκαλέσει...
Ποιες συνθήκες έχουν ως αποτέλεσμα το σχηματισμό πάχνης;
Τι περιλαμβάνει μια πρόγνωση καιρού αεροδρομίου TAF;

μπορείτε να γυρίσετε πίσω για ένα τελικό έλεγχο ή να πατήσετε ΒΑΘΜΟΛΟΓΙΑ για αποτελέσματα.



Ονοματεπώνυμο (στην περίπτωση μονο που θέλετε πιστοποιητικό)